Time;durP1;ratioP1;P1;durP2;ratioP2;P2;SDS_P1;SDS_P2;PMS_P1;PMS_P2;Temp;Humidity;BMP_temperature;BMP_pressure;BME280_temperature;BME280_humidity;BME280_pressure;Samples;Min_cycle;Max_cycle;Signal;HPM_P1;HPM_P2
2023/01/24 00:01:46;;;;;;;23.67;10.85;;;2.70;99.90;;;;;;5139221;28;20030;-68
2023/01/24 00:04:18;;;;;;;20.25;11.02;;;2.70;99.90;;;;;;5105783;28;20346;-67
2023/01/24 00:06:51;;;;;;;18.75;10.35;;;2.70;99.90;;;;;;5116944;28;20038;-69
2023/01/24 00:09:25;;;;;;;22.73;10.40;;;2.70;99.90;;;;;;5141092;28;20386;-68
2023/01/24 00:11:56;;;;;;;19.67;10.45;;;2.70;99.90;;;;;;5151187;28;20766;-65
2023/01/24 00:14:27;;;;;;;22.00;11.18;;;2.70;99.90;;;;;;5134408;28;20268;-69
2023/01/24 00:16:58;;;;;;;22.95;11.63;;;2.70;99.90;;;;;;5152036;28;20102;-68
2023/01/24 00:19:29;;;;;;;20.52;10.75;;;2.70;99.90;;;;;;5135017;28;20030;-68
2023/01/24 00:22:10;;;;;;;23.52;11.23;;;2.70;99.90;;;;;;5150304;28;20026;-69
2023/01/24 00:24:45;;;;;;;23.02;10.93;;;2.70;99.90;;;;;;5134965;28;20022;-68
2023/01/24 00:27:19;;;;;;;21.35;11.68;;;2.60;99.90;;;;;;5098603;28;20444;-69
2023/01/24 00:29:59;;;;;;;21.55;12.18;;;2.60;99.90;;;;;;5130637;28;20035;-69
2023/01/24 00:32:30;;;;;;;23.60;11.70;;;2.60;99.90;;;;;;5118951;28;20037;-68
2023/01/24 00:35:01;;;;;;;27.42;12.95;;;2.60;99.90;;;;;;5129902;28;20038;-69
2023/01/24 00:37:38;;;;;;;25.55;12.40;;;2.50;99.90;;;;;;5151987;28;20030;-69
2023/01/24 00:40:10;;;;;;;25.50;13.88;;;2.50;99.90;;;;;;5135694;28;20042;-65
2023/01/24 00:42:42;;;;;;;25.88;11.88;;;2.50;99.90;;;;;;5144886;28;20441;-69
2023/01/24 00:45:14;;;;;;;23.02;11.07;;;2.50;99.90;;;;;;5136124;28;20044;-67
2023/01/24 00:47:45;;;;;;;21.60;12.07;;;2.50;99.90;;;;;;5151740;28;20036;-68
2023/01/24 00:50:19;;;;;;;23.20;11.95;;;2.50;99.90;;;;;;5153419;28;20042;-70
2023/01/24 00:52:50;;;;;;;22.67;11.65;;;2.50;99.90;;;;;;5151305;28;20537;-69
2023/01/24 00:55:21;;;;;;;25.35;11.65;;;2.50;99.90;;;;;;5151350;28;20326;-65
2023/01/24 00:57:52;;;;;;;19.85;11.13;;;2.50;99.90;;;;;;5151097;28;20032;-68
2023/01/24 01:00:27;;;;;;;21.92;12.05;;;2.50;99.90;;;;;;5139865;28;20034;-68
2023/01/24 01:02:58;;;;;;;22.38;11.43;;;2.50;99.90;;;;;;5182647;23;20602;-68
2023/01/24 01:05:35;;;;;;;21.83;11.07;;;2.60;99.90;;;;;;5099875;28;20043;-68
2023/01/24 01:08:10;;;;;;;25.35;12.20;;;2.60;99.90;;;;;;5093562;29;20043;-67
2023/01/24 01:10:41;;;;;;;21.15;10.80;;;2.60;99.90;;;;;;5095428;29;20051;-67
2023/01/24 01:13:15;;;;;;;23.10;11.30;;;2.60;99.90;;;;;;5111415;29;20053;-66
2023/01/24 01:15:52;;;;;;;23.13;11.00;;;2.60;99.90;;;;;;5091039;29;20033;-68
2023/01/24 01:18:29;;;;;;;21.55;10.77;;;2.60;99.90;;;;;;5112875;28;20033;-67
2023/01/24 01:21:12;;;;;;;23.50;11.55;;;2.60;99.90;;;;;;5092615;29;20381;-70
2023/01/24 01:23:43;;;;;;;21.67;11.02;;;2.60;99.90;;;;;;5107742;29;20643;-68
2023/01/24 01:26:20;;;;;;;;;;;2.60;99.90;;;;;;5094391;29;20243;-68
2023/01/24 01:28:54;;;;;;;20.42;9.63;;;2.60;99.90;;;;;;5093025;29;19910;-67
2023/01/24 01:31:25;;;;;;;22.60;10.75;;;2.60;99.90;;;;;;5110335;29;20035;-67
2023/01/24 01:33:56;;;;;;;21.05;11.38;;;2.50;99.90;;;;;;5109731;28;20031;-67
2023/01/24 01:36:28;;;;;;;21.70;11.60;;;2.50;99.90;;;;;;5092761;29;20053;-66
2023/01/24 01:39:03;;;;;;;23.77;11.00;;;2.60;99.90;;;;;;5109303;29;20666;-68
2023/01/24 01:41:34;;;;;;;;;;;2.50;99.90;;;;;;5111299;28;20050;-67
2023/01/24 01:47:20;;;;;;;17.63;9.05;;;2.60;99.90;;;;;;5106664;28;20367;-67
2023/01/24 01:50:28;;;;;;;22.23;11.23;;;2.60;99.90;;;;;;5092393;29;20423;-67
2023/01/24 01:53:06;;;;;;;19.30;10.07;;;2.60;99.90;;;;;;5120802;28;20039;-67
2023/01/24 01:55:49;;;;;;;17.85;10.40;;;2.50;99.90;;;;;;5113505;28;20066;-69
2023/01/24 01:58:21;;;;;;;20.50;10.23;;;2.60;99.90;;;;;;5105827;28;20035;-66
2023/01/24 02:00:52;;;;;;;22.23;11.00;;;2.50;99.90;;;;;;5106813;28;20043;-67
2023/01/24 02:03:37;;;;;;;27.05;11.07;;;2.50;99.90;;;;;;5108379;28;20235;-66
2023/01/24 02:06:34;;;;;;;22.35;11.65;;;2.60;99.90;;;;;;5099450;28;20523;-66
2023/01/24 02:09:10;;;;;;;24.80;12.35;;;2.50;99.90;;;;;;5108129;29;20023;-66
2023/01/24 02:11:47;;;;;;;21.38;11.43;;;2.50;99.90;;;;;;5103869;28;20027;-66
2023/01/24 02:17:19;;;;;;;21.10;10.45;;;2.60;99.90;;;;;;5104931;28;20031;-65
2023/01/24 02:20:28;;;;;;;17.10;10.27;;;2.60;99.90;;;;;;5108686;28;20045;-65
2023/01/24 02:23:26;;;;;;;20.38;9.57;;;2.50;99.90;;;;;;5113160;28;20518;-66
2023/01/24 02:26:03;;;;;;;20.67;9.80;;;2.50;99.90;;;;;;5112781;28;20027;-65
2023/01/24 02:28:40;;;;;;;18.38;10.10;;;2.50;99.90;;;;;;5108269;28;20035;-67
2023/01/24 02:31:17;;;;;;;18.05;9.48;;;2.60;99.90;;;;;;5111070;28;20053;-66
2023/01/24 02:33:48;;;;;;;21.98;11.27;;;2.60;99.90;;;;;;5108624;29;20045;-68
2023/01/24 02:36:22;;;;;;;19.17;9.95;;;2.50;99.90;;;;;;5109082;29;20625;-67
2023/01/24 02:39:00;;;;;;;25.35;11.63;;;2.50;99.90;;;;;;5109399;28;20630;-66
2023/01/24 02:41:48;;;;;;;20.50;11.75;;;2.50;99.90;;;;;;5091835;28;20869;-67
2023/01/24 02:44:39;;;;;;;18.73;10.95;;;2.40;99.90;;;;;;5090893;29;20043;-67
2023/01/24 02:47:10;;;;;;;21.65;10.73;;;2.50;99.90;;;;;;5091525;29;20031;-66
2023/01/24 02:49:42;;;;;;;20.48;10.30;;;2.50;99.90;;;;;;5091294;29;20354;-66
2023/01/24 02:55:03;;;;;;;16.73;9.88;;;2.40;99.90;;;;;;5109380;29;20028;-66
2023/01/24 03:00:24;;;;;;;21.27;10.43;;;2.40;99.90;;;;;;5101966;28;20347;-65
2023/01/24 03:02:55;;;;;;;18.92;9.85;;;2.40;99.90;;;;;;5106827;28;20038;-65
2023/01/24 03:05:39;;;;;;;18.25;9.65;;;2.40;99.90;;;;;;5101810;28;20063;-66
2023/01/24 03:08:11;;;;;;;16.42;9.20;;;2.40;99.90;;;;;;5092461;29;20046;-67
2023/01/24 03:10:46;;;;;;;19.77;9.93;;;2.50;99.90;;;;;;5103902;28;20051;-64
2023/01/24 03:36:19;;;;;;;21.00;10.32;;;2.40;99.90;;;;;;5113137;29;20023;-68
2023/01/24 03:41:41;;;;;;;16.27;9.10;;;2.40;99.90;;;;;;5110629;29;20307;-65
2023/01/24 03:44:12;;;;;;;22.10;11.00;;;2.40;99.90;;;;;;5093269;29;20043;-65
2023/01/24 03:46:45;;;;;;;19.33;10.55;;;2.40;99.90;;;;;;5110365;28;20038;-66
2023/01/24 03:49:16;;;;;;;21.38;11.07;;;2.40;99.90;;;;;;5126823;28;20429;-66
2023/01/24 03:54:45;;;;;;;23.92;12.18;;;2.40;99.90;;;;;;5102614;28;20047;-64
2023/01/24 03:57:16;;;;;;;25.80;12.85;;;2.30;99.90;;;;;;5110070;29;20077;-67
2023/01/24 03:59:48;;;;;;;24.27;11.48;;;2.40;99.90;;;;;;5110996;29;20031;-67
2023/01/24 04:02:19;;;;;;;18.67;10.52;;;2.40;99.90;;;;;;5106673;28;20043;-65
2023/01/24 04:07:42;;;;;;;20.77;10.25;;;2.40;99.90;;;;;;5112964;28;20660;-66
2023/01/24 04:10:14;;;;;;;27.00;12.68;;;2.40;99.90;;;;;;5095976;29;20382;-67
2023/01/24 04:12:48;;;;;;;23.50;11.48;;;2.40;99.90;;;;;;5111103;28;20415;-66
2023/01/24 04:15:27;;;;;;;19.33;10.90;;;2.40;99.90;;;;;;5092696;28;20027;-65
2023/01/24 04:18:02;;;;;;;21.50;10.88;;;2.40;99.90;;;;;;5094475;29;20045;-66
2023/01/24 04:20:35;;;;;;;25.88;11.40;;;2.40;99.90;;;;;;5096668;29;20035;-66
2023/01/24 04:23:08;;;;;;;24.70;11.68;;;2.40;99.90;;;;;;5088677;28;20035;-65
2023/01/24 04:25:41;;;;;;;22.00;10.60;;;2.30;99.90;;;;;;5101628;28;20039;-66
2023/01/24 04:28:12;;;;;;;23.63;10.77;;;2.30;99.90;;;;;;5082276;28;20436;-66
2023/01/24 04:30:44;;;;;;;25.45;13.40;;;2.30;99.90;;;;;;5089039;29;20039;-65
2023/01/24 04:33:16;;;;;;;20.83;10.98;;;2.40;99.90;;;;;;5095218;29;20031;-66
2023/01/24 04:35:53;;;;;;;24.60;12.50;;;2.40;99.90;;;;;;5109918;28;20043;-67
2023/01/24 04:38:26;;;;;;;26.98;11.57;;;2.30;99.90;;;;;;5112128;29;20033;-66
2023/01/24 04:41:04;;;;;;;22.25;11.23;;;2.40;99.90;;;;;;5095613;29;20043;-65
2023/01/24 04:43:36;;;;;;;20.52;10.98;;;2.40;99.90;;;;;;5095029;29;20042;-65
2023/01/24 04:46:12;;;;;;;20.27;10.27;;;2.30;99.90;;;;;;5109910;28;20039;-66
2023/01/24 04:48:46;;;;;;;21.55;10.63;;;2.30;99.90;;;;;;5093251;28;20531;-66
2023/01/24 04:51:17;;;;;;;20.48;10.90;;;2.30;99.90;;;;;;5093386;29;20051;-66
2023/01/24 04:53:48;;;;;;;22.25;10.23;;;2.30;99.90;;;;;;5109499;29;20037;-66
2023/01/24 04:56:22;;;;;;;22.23;10.75;;;2.30;99.90;;;;;;5090785;29;20043;-63
2023/01/24 04:58:57;;;;;;;19.45;11.65;;;2.30;99.90;;;;;;5115951;28;20041;-64
2023/01/24 05:01:36;;;;;;;21.33;10.60;;;2.30;99.90;;;;;;5089797;28;20037;-66
2023/01/24 05:04:07;;;;;;;19.90;9.63;;;2.30;99.90;;;;;;5085700;28;20043;-66
2023/01/24 05:06:40;;;;;;;21.02;10.82;;;2.30;99.90;;;;;;5084277;28;20051;-66
2023/01/24 05:09:14;;;;;;;23.38;11.48;;;2.30;99.90;;;;;;5111522;29;20599;-66
2023/01/24 05:11:48;;;;;;;20.42;10.13;;;2.30;99.90;;;;;;5110999;29;20039;-67
2023/01/24 05:14:21;;;;;;;20.83;10.55;;;2.30;99.90;;;;;;5110135;28;20031;-65
2023/01/24 05:16:55;;;;;;;23.00;10.65;;;2.30;99.90;;;;;;5109105;29;20185;-64
2023/01/24 05:19:27;;;;;;;18.92;10.10;;;2.30;99.90;;;;;;5109089;28;20579;-65
2023/01/24 05:22:01;;;;;;;17.55;9.30;;;2.30;99.90;;;;;;5124570;28;20041;-66
2023/01/24 05:24:34;;;;;;;19.58;10.55;;;2.30;99.90;;;;;;5128940;28;20045;-66
2023/01/24 05:27:06;;;;;;;21.50;10.98;;;2.30;99.90;;;;;;5116662;28;20168;-65
2023/01/24 05:29:45;;;;;;;21.90;10.00;;;2.30;99.90;;;;;;5111902;29;20042;-65
2023/01/24 05:32:19;;;;;;;27.02;12.15;;;2.30;99.90;;;;;;5108497;28;20037;-63
2023/01/24 05:34:50;;;;;;;22.48;11.20;;;2.30;99.90;;;;;;5110923;28;20050;-67
2023/01/24 05:37:26;;;;;;;20.13;11.43;;;2.30;99.90;;;;;;5101353;29;20038;-66
2023/01/24 05:39:59;;;;;;;23.10;9.90;;;2.40;99.90;;;;;;5106918;29;20045;-64
2023/01/24 05:42:36;;;;;;;22.92;9.98;;;2.40;99.90;;;;;;5111891;29;20313;-66
2023/01/24 05:45:14;;;;;;;21.02;10.57;;;2.30;99.90;;;;;;5108443;28;20033;-66
2023/01/24 05:47:47;;;;;;;24.38;11.90;;;2.30;99.90;;;;;;5108592;28;20553;-66
2023/01/24 05:50:21;;;;;;;22.87;11.57;;;2.30;99.90;;;;;;5089101;28;20283;-67
2023/01/24 05:52:52;;;;;;;22.23;11.00;;;2.30;99.90;;;;;;5105285;28;20265;-64
2023/01/24 05:55:23;;;;;;;19.63;10.63;;;2.40;99.90;;;;;;5109754;29;20043;-64
2023/01/24 05:57:59;;;;;;;21.98;11.07;;;2.30;99.90;;;;;;5109207;29;20057;-66
2023/01/24 06:00:30;;;;;;;24.63;10.85;;;2.40;99.90;;;;;;5091645;28;20038;-65
2023/01/24 06:03:03;;;;;;;24.23;11.63;;;2.40;99.90;;;;;;5109223;28;20038;-66
2023/01/24 06:05:37;;;;;;;20.70;10.25;;;2.40;99.90;;;;;;5102248;28;20078;-66
2023/01/24 06:08:11;;;;;;;24.23;12.25;;;2.40;99.90;;;;;;5108496;28;20039;-66
2023/01/24 06:10:45;;;;;;;23.07;12.17;;;2.40;99.90;;;;;;5092655;29;20039;-66
2023/01/24 06:13:17;;;;;;;21.45;11.05;;;2.40;99.90;;;;;;5124332;28;20031;-64
2023/01/24 06:15:48;;;;;;;21.83;11.43;;;2.40;99.90;;;;;;5105501;29;20046;-66
2023/01/24 06:18:20;;;;;;;21.77;10.70;;;2.40;99.90;;;;;;5112823;28;20039;-66
2023/01/24 06:20:55;;;;;;;23.25;11.77;;;2.40;99.90;;;;;;5097488;28;20345;-65
2023/01/24 06:23:28;;;;;;;23.23;11.88;;;2.40;99.90;;;;;;5092342;29;20046;-66
2023/01/24 06:26:00;;;;;;;21.58;11.38;;;2.40;99.90;;;;;;5094755;29;20043;-65
2023/01/24 06:28:31;;;;;;;23.17;10.80;;;2.40;99.90;;;;;;5092886;29;20217;-65
2023/01/24 06:31:20;;;;;;;22.38;11.75;;;2.40;99.90;;;;;;5102108;28;20038;-67
2023/01/24 06:34:12;;;;;;;22.00;10.82;;;2.30;99.90;;;;;;5103244;28;20352;-65
2023/01/24 06:36:47;;;;;;;22.73;12.15;;;2.30;99.90;;;;;;5109056;29;20483;-66
2023/01/24 06:39:20;;;;;;;23.52;10.60;;;2.30;99.90;;;;;;5110848;29;20027;-65
2023/01/24 06:41:52;;;;;;;22.30;12.52;;;2.30;99.90;;;;;;5103793;28;21395;-65
2023/01/24 06:44:23;;;;;;;22.67;11.35;;;2.30;99.90;;;;;;5108342;28;20031;-65
2023/01/24 06:46:57;;;;;;;28.15;12.50;;;2.40;99.90;;;;;;5108663;28;20023;-65
2023/01/24 06:49:31;;;;;;;20.48;10.50;;;2.40;99.90;;;;;;5109158;29;20209;-65
2023/01/24 06:52:02;;;;;;;22.00;10.43;;;2.30;99.90;;;;;;5110421;28;20039;-66
2023/01/24 06:54:38;;;;;;;21.50;10.95;;;2.30;99.90;;;;;;5093369;29;20355;-66
2023/01/24 06:57:12;;;;;;;24.00;12.63;;;2.30;99.90;;;;;;5105143;28;20031;-65
2023/01/24 06:59:43;;;;;;;23.80;11.98;;;2.40;99.90;;;;;;5109948;28;20045;-63
2023/01/24 07:02:14;;;;;;;20.10;10.93;;;2.30;99.90;;;;;;5112646;28;20039;-65
2023/01/24 07:04:46;;;;;;;25.27;11.85;;;2.40;99.90;;;;;;5090244;28;20047;-65
2023/01/24 07:07:17;;;;;;;26.83;12.13;;;2.40;99.90;;;;;;5095717;29;20154;-66
2023/01/24 07:09:48;;;;;;;24.42;12.40;;;2.30;99.90;;;;;;5113090;29;20029;-65
2023/01/24 07:12:19;;;;;;;32.75;12.45;;;2.40;99.90;;;;;;5112484;29;20461;-64
2023/01/24 07:14:55;;;;;;;22.80;11.57;;;2.40;99.90;;;;;;5114145;28;20053;-65
2023/01/24 07:17:29;;;;;;;27.70;12.10;;;2.40;99.90;;;;;;5105275;28;20057;-65
2023/01/24 07:20:00;;;;;;;31.33;14.00;;;2.40;99.90;;;;;;5101735;28;20055;-65
2023/01/24 07:22:40;;;;;;;27.83;13.13;;;2.40;99.90;;;;;;5107338;28;20500;-65
2023/01/24 07:25:18;;;;;;;22.52;11.80;;;2.40;99.90;;;;;;5111523;29;20207;-65
2023/01/24 07:27:52;;;;;;;26.20;12.05;;;2.40;99.90;;;;;;5111844;29;20050;-65
2023/01/24 07:30:24;;;;;;;25.23;12.02;;;2.40;99.90;;;;;;5094501;29;20051;-65
2023/01/24 07:32:58;;;;;;;22.45;11.77;;;2.40;99.90;;;;;;5112524;28;20478;-66
2023/01/24 07:35:30;;;;;;;26.02;12.02;;;2.50;99.90;;;;;;5107080;28;20019;-65
2023/01/24 07:38:02;;;;;;;28.25;12.52;;;2.40;99.90;;;;;;5095461;29;20045;-66
2023/01/24 07:40:36;;;;;;;24.23;12.15;;;2.40;99.90;;;;;;5111897;29;20055;-66
2023/01/24 07:43:14;;;;;;;22.20;11.07;;;2.40;99.90;;;;;;5110329;28;20046;-65
2023/01/24 07:45:46;;;;;;;27.98;12.63;;;2.40;99.90;;;;;;5109991;29;20116;-63
2023/01/24 07:48:20;;;;;;;27.77;12.63;;;2.50;99.90;;;;;;5111137;29;20045;-65
2023/01/24 07:50:57;;;;;;;22.52;11.60;;;2.60;99.90;;;;;;5112277;28;20352;-64
2023/01/24 07:53:31;;;;;;;25.23;13.63;;;2.50;99.90;;;;;;5108282;28;20035;-64
2023/01/24 07:56:03;;;;;;;20.98;11.23;;;2.50;99.90;;;;;;5111881;28;20034;-65
2023/01/24 07:58:34;;;;;;;26.02;11.98;;;2.60;99.90;;;;;;5094278;29;20041;-64
2023/01/24 08:01:06;;;;;;;26.90;11.63;;;2.60;99.90;;;;;;5108146;28;20041;-64
2023/01/24 08:03:37;;;;;;;30.65;12.93;;;2.60;99.90;;;;;;5110002;28;20043;-63
2023/01/24 08:06:08;;;;;;;31.25;12.98;;;2.60;99.90;;;;;;5116627;28;20331;-64
2023/01/24 08:08:42;;;;;;;30.08;13.35;;;2.60;99.90;;;;;;5110856;29;20037;-63
2023/01/24 08:11:17;;;;;;;29.27;13.32;;;2.70;99.90;;;;;;5109019;28;20038;-64
2023/01/24 08:13:49;;;;;;;23.92;12.35;;;2.80;99.90;;;;;;5112651;28;20065;-65
2023/01/24 08:16:25;;;;;;;28.73;12.18;;;2.80;99.90;;;;;;5108636;28;20033;-64
2023/01/24 08:18:56;;;;;;;34.47;15.60;;;2.80;99.90;;;;;;5097068;28;20039;-64
2023/01/24 08:21:27;;;;;;;25.90;12.10;;;2.90;99.90;;;;;;5110160;28;20157;-63
2023/01/24 08:23:59;;;;;;;28.05;13.23;;;2.90;99.90;;;;;;5088522;28;20257;-65
2023/01/24 08:26:30;;;;;;;25.52;12.15;;;2.90;99.90;;;;;;5105376;28;20042;-64
2023/01/24 08:29:01;;;;;;;24.13;12.20;;;2.90;99.90;;;;;;5099245;28;20231;-63
2023/01/24 08:31:35;;;;;;;27.95;12.18;;;2.90;99.90;;;;;;5116328;28;20035;-63
2023/01/24 08:34:06;;;;;;;25.83;11.57;;;2.90;99.90;;;;;;5109991;28;20057;-63
2023/01/24 08:36:37;;;;;;;27.13;13.00;;;2.90;99.90;;;;;;5126250;28;20046;-63
2023/01/24 08:39:11;;;;;;;26.92;11.85;;;2.80;99.90;;;;;;5117747;28;20219;-63
2023/01/24 08:41:46;;;;;;;28.47;12.77;;;2.90;99.90;;;;;;5105909;28;20035;-64
2023/01/24 08:44:17;;;;;;;24.20;12.20;;;2.90;99.90;;;;;;5097849;28;20047;-65
2023/01/24 08:46:48;;;;;;;29.52;14.95;;;2.80;99.90;;;;;;5093646;28;20035;-65
2023/01/24 08:49:19;;;;;;;28.40;12.52;;;2.80;99.90;;;;;;5107911;28;20037;-63
2023/01/24 08:51:58;;;;;;;25.00;13.77;;;2.90;99.90;;;;;;5110957;29;20038;-64
2023/01/24 08:54:36;;;;;;;26.55;13.68;;;3.00;99.90;;;;;;5093014;28;20039;-64
2023/01/24 08:57:10;;;;;;;25.55;11.93;;;3.00;99.90;;;;;;5110669;29;20160;-64
2023/01/24 08:59:41;;;;;;;27.88;12.85;;;2.90;99.90;;;;;;5092695;29;20031;-64
2023/01/24 09:02:14;;;;;;;26.35;12.20;;;2.90;99.90;;;;;;5106761;28;20281;-64
2023/01/24 09:04:47;;;;;;;26.80;12.90;;;2.90;99.90;;;;;;5102759;28;20064;-63
2023/01/24 09:07:21;;;;;;;26.33;12.87;;;2.80;99.90;;;;;;5110485;29;20319;-64
2023/01/24 09:09:52;;;;;;;26.13;12.45;;;2.80;99.90;;;;;;5110222;29;20046;-64
2023/01/24 09:12:24;;;;;;;23.75;11.60;;;2.80;99.90;;;;;;5109546;28;20200;-64
2023/01/24 09:14:55;;;;;;;28.00;12.15;;;2.80;99.90;;;;;;5107122;28;21089;-64
2023/01/24 09:17:28;;;;;;;25.83;12.20;;;2.80;99.90;;;;;;5115881;28;20050;-63
2023/01/24 09:20:00;;;;;;;30.02;13.95;;;2.80;99.90;;;;;;5110630;28;20495;-63
2023/01/24 09:22:31;;;;;;;34.13;12.73;;;2.90;99.90;;;;;;5110426;28;20031;-64
2023/01/24 09:25:03;;;;;;;28.95;13.70;;;3.00;99.90;;;;;;5091057;28;20223;-65
2023/01/24 09:27:40;;;;;;;22.08;10.38;;;3.00;99.90;;;;;;5078066;29;20039;-63
2023/01/24 09:30:12;;;;;;;29.85;12.88;;;3.00;99.90;;;;;;5055564;29;20042;-63
2023/01/24 09:32:44;;;;;;;28.02;12.70;;;3.00;99.90;;;;;;5099927;29;20121;-65
2023/01/24 09:35:15;;;;;;;29.10;11.88;;;3.10;99.90;;;;;;5105698;28;20509;-64
2023/01/24 09:37:46;;;;;;;24.25;12.15;;;3.00;99.90;;;;;;5107308;28;20031;-64
2023/01/24 09:40:21;;;;;;;27.60;12.30;;;3.00;99.90;;;;;;5109311;29;20045;-65
2023/01/24 09:43:24;;;;;;;28.30;12.55;;;2.90;99.90;;;;;;5092615;29;20602;-64
2023/01/24 09:46:29;;;;;;;30.67;14.05;;;2.90;99.90;;;;;;5105053;28;20035;-63
2023/01/24 09:49:43;;;;;;;25.30;11.75;;;3.00;99.90;;;;;;5101030;28;20032;-64
2023/01/24 09:52:24;;;;;;;28.40;13.52;;;3.00;99.90;;;;;;5103310;29;20046;-64
2023/01/24 09:55:10;;;;;;;27.77;12.85;;;3.00;99.90;;;;;;5108046;28;20045;-64
2023/01/24 09:58:19;;;;;;;26.48;12.82;;;3.00;99.90;;;;;;5088479;29;20036;-65
2023/01/24 10:00:58;;;;;;;31.13;12.40;;;3.00;99.90;;;;;;5102064;28;20584;-64
2023/01/24 10:03:34;;;;;;;28.23;13.00;;;3.00;99.90;;;;;;5104707;28;20053;-65
2023/01/24 10:06:20;;;;;;;27.42;12.20;;;3.00;99.90;;;;;;5105733;28;20054;-63
2023/01/24 10:09:16;;;;;;;29.60;12.52;;;3.10;99.90;;;;;;5104883;28;20026;-65
2023/01/24 10:12:00;;;;;;;18.70;9.75;;;3.00;99.90;;;;;;5090096;29;20036;-66
2023/01/24 10:14:48;;;;;;;24.63;10.77;;;3.00;99.90;;;;;;5090782;29;20024;-65
2023/01/24 10:17:42;;;;;;;30.85;12.73;;;3.00;99.90;;;;;;5104202;28;20277;-65
2023/01/24 10:20:47;;;;;;;23.70;11.95;;;3.10;99.90;;;;;;5125323;28;20049;-65
2023/01/24 10:23:23;;;;;;;30.65;12.25;;;3.00;99.90;;;;;;5130947;28;20029;-65
2023/01/24 10:26:01;;;;;;;24.02;11.82;;;3.10;99.90;;;;;;5120570;28;20039;-64
2023/01/24 10:28:41;;;;;;;29.38;13.63;;;3.00;99.90;;;;;;5110194;28;20027;-66
2023/01/24 10:31:39;;;;;;;25.67;11.68;;;2.90;99.90;;;;;;5106103;28;20027;-64
2023/01/24 10:34:30;;;;;;;27.15;11.75;;;2.90;99.90;;;;;;5096019;29;20050;-63
2023/01/24 10:37:23;;;;;;;29.48;12.88;;;3.00;99.90;;;;;;5104690;28;20023;-64
2023/01/24 10:39:55;;;;;;;26.63;12.35;;;3.00;99.90;;;;;;5088526;28;20039;-66
2023/01/24 10:42:33;;;;;;;24.33;11.85;;;3.10;99.90;;;;;;5105943;28;20045;-65
2023/01/24 10:45:33;;;;;;;26.02;11.77;;;3.20;99.90;;;;;;5111745;29;20039;-66
2023/01/24 10:48:12;;;;;;;26.30;11.50;;;3.10;99.90;;;;;;5106256;29;20057;-65
2023/01/24 10:50:48;;;;;;;26.30;11.32;;;3.20;99.90;;;;;;5113919;28;20442;-64
2023/01/24 10:53:22;;;;;;;24.23;11.52;;;3.10;99.90;;;;;;5104317;28;20039;-65
2023/01/24 10:55:58;;;;;;;;;;;3.10;99.90;;;;;;5109650;28;20042;-65
2023/01/24 10:58:59;;;;;;;27.45;12.55;;;3.20;99.90;;;;;;5112276;29;19913;-65
2023/01/24 11:01:45;;;;;;;27.10;11.20;;;3.20;99.90;;;;;;5104703;28;20344;-65
2023/01/24 11:04:27;;;;;;;22.52;11.65;;;3.10;99.90;;;;;;5096292;28;20384;-65
2023/01/24 11:07:01;;;;;;;27.45;13.15;;;3.10;99.90;;;;;;5118200;28;20342;-64
2023/01/24 11:09:35;;;;;;;26.00;12.07;;;3.10;99.90;;;;;;5108176;29;20031;-66
2023/01/24 11:12:13;;;;;;;28.23;11.27;;;3.20;99.90;;;;;;5108209;28;20039;-65
2023/01/24 11:14:48;;;;;;;22.60;11.05;;;3.20;99.90;;;;;;5110063;28;20259;-64
2023/01/24 11:17:41;;;;;;;25.00;12.30;;;3.20;99.90;;;;;;5109953;28;20427;-65
2023/01/24 11:20:43;;;;;;;25.63;11.10;;;3.20;99.90;;;;;;5112323;29;20339;-64
2023/01/24 11:23:17;;;;;;;22.02;10.70;;;3.20;99.90;;;;;;5103704;28;20030;-64
2023/01/24 11:26:01;;;;;;;23.77;12.63;;;3.20;99.90;;;;;;5104254;28;20033;-65
2023/01/24 11:28:37;;;;;;;24.33;11.07;;;3.20;99.90;;;;;;5102496;28;20036;-65
2023/01/24 11:31:32;;;;;;;26.48;11.95;;;3.10;99.90;;;;;;5098883;28;20049;-64
2023/01/24 11:34:25;;;;;;;21.00;11.20;;;3.10;99.90;;;;;;5108012;29;20039;-65
2023/01/24 11:37:04;;;;;;;21.08;11.27;;;3.20;99.90;;;;;;5110956;29;20035;-65
2023/01/24 11:39:36;;;;;;;19.73;9.65;;;3.20;99.90;;;;;;5105778;28;21076;-64
2023/01/24 11:42:28;;;;;;;21.33;10.82;;;3.30;99.90;;;;;;5111106;28;20173;-65
2023/01/24 11:45:32;;;;;;;20.75;10.20;;;3.40;99.90;;;;;;5111768;28;20027;-65
2023/01/24 11:48:11;;;;;;;23.58;10.18;;;3.20;99.90;;;;;;5112024;28;20029;-67
2023/01/24 11:50:48;;;;;;;17.92;9.90;;;3.20;99.90;;;;;;5107048;28;20037;-64
2023/01/24 11:53:41;;;;;;;22.50;10.85;;;3.20;99.90;;;;;;5109883;28;20557;-64
2023/01/24 11:56:20;;;;;;;21.08;10.93;;;3.10;99.90;;;;;;5111533;29;20304;-64
2023/01/24 11:58:59;;;;;;;25.88;11.65;;;3.10;99.90;;;;;;5093132;28;20050;-65
2023/01/24 12:02:07;;;;;;;21.60;10.40;;;3.00;99.90;;;;;;5087150;29;20037;-65
2023/01/24 12:04:50;;;;;;;22.45;10.18;;;2.90;99.90;;;;;;5080085;28;20053;-65
2023/01/24 12:07:40;;;;;;;23.23;11.63;;;3.00;99.90;;;;;;5110617;29;20031;-65
2023/01/24 12:11:09;;;;;;;21.38;11.38;;;3.00;99.90;;;;;;5102901;29;20046;-66
2023/01/24 12:13:55;;;;;;;27.90;11.93;;;2.90;99.90;;;;;;5088752;29;20045;-65
2023/01/24 12:17:15;;;;;;;19.48;10.45;;;2.90;99.90;;;;;;5085683;29;20042;-66
2023/01/24 12:20:05;;;;;;;23.88;11.50;;;3.00;99.90;;;;;;5074057;29;20063;-65
2023/01/24 12:22:40;;;;;;;18.27;9.25;;;3.00;99.90;;;;;;5089206;29;20032;-65
2023/01/24 12:25:29;;;;;;;20.30;10.05;;;3.00;99.90;;;;;;5074243;29;20370;-65
2023/01/24 12:28:11;;;;;;;24.98;10.93;;;3.00;99.90;;;;;;5072010;29;20050;-66
2023/01/24 12:30:51;;;;;;;19.23;10.27;;;3.00;99.90;;;;;;5086079;29;20050;-65
2023/01/24 12:33:23;;;;;;;21.23;10.63;;;3.10;99.90;;;;;;5084439;29;20044;-63
2023/01/24 12:36:01;;;;;;;16.45;8.70;;;3.10;99.90;;;;;;5088369;29;20113;-66
2023/01/24 12:38:35;;;;;;;20.42;10.80;;;3.10;99.90;;;;;;5088858;29;20176;-66
2023/01/24 12:41:20;;;;;;;23.00;10.40;;;3.00;99.90;;;;;;5074072;29;20539;-64
2023/01/24 12:44:17;;;;;;;19.67;10.23;;;3.00;99.90;;;;;;5108334;29;20253;-63
2023/01/24 12:47:20;;;;;;;22.23;9.68;;;3.10;99.90;;;;;;5077210;29;20045;-64
2023/01/24 12:50:13;;;;;;;25.67;10.88;;;3.10;99.90;;;;;;5123557;28;20308;-63
2023/01/24 12:52:55;;;;;;;19.65;8.93;;;3.10;99.90;;;;;;5113746;28;20035;-65
2023/01/24 12:55:51;;;;;;;21.42;10.90;;;3.10;99.90;;;;;;5110804;29;20027;-65
2023/01/24 12:58:39;;;;;;;19.67;9.52;;;3.00;99.90;;;;;;5110711;28;20330;-66
2023/01/24 13:01:16;;;;;;;18.48;9.73;;;3.10;99.90;;;;;;5107917;28;20357;-63
2023/01/24 13:04:16;;;;;;;19.40;10.23;;;3.00;99.90;;;;;;5084715;28;20043;-67
2023/01/24 13:07:08;;;;;;;17.95;8.88;;;3.00;99.90;;;;;;5083453;29;20416;-66
2023/01/24 13:09:45;;;;;;;21.50;10.05;;;3.10;99.90;;;;;;5111091;28;20034;-64
2023/01/24 13:12:22;;;;;;;20.70;10.60;;;3.10;99.90;;;;;;5123967;28;20428;-66
2023/01/24 13:15:18;;;;;;;17.23;9.02;;;3.00;99.90;;;;;;5109470;29;20436;-66
2023/01/24 13:18:07;;;;;;;20.33;10.02;;;3.00;99.90;;;;;;5110381;29;20019;-66
2023/01/24 13:20:49;;;;;;;16.92;9.75;;;3.10;99.90;;;;;;5103245;28;20027;-64
2023/01/24 13:23:31;;;;;;;17.00;9.07;;;3.20;99.90;;;;;;5109982;28;20034;-64
2023/01/24 13:26:31;;;;;;;21.40;8.60;;;3.20;99.90;;;;;;5092752;29;20035;-66
2023/01/24 13:29:29;;;;;;;21.30;9.40;;;3.10;99.90;;;;;;5110369;29;20548;-66
2023/01/24 13:32:17;;;;;;;17.88;10.25;;;3.10;99.90;;;;;;5105727;28;20042;-65
2023/01/24 13:34:58;;;;;;;16.90;9.23;;;3.20;99.90;;;;;;5109930;29;20039;-66
2023/01/24 13:37:34;;;;;;;18.70;9.90;;;3.20;99.90;;;;;;5094536;29;20045;-65
2023/01/24 13:40:17;;;;;;;24.98;11.85;;;3.30;99.90;;;;;;5110140;28;20031;-66
2023/01/24 13:42:51;;;;;;;21.05;10.07;;;3.30;99.90;;;;;;5108225;28;20031;-64
2023/01/24 13:45:28;;;;;;;20.92;9.82;;;3.40;99.90;;;;;;5108763;29;20039;-65
2023/01/24 13:48:04;;;;;;;16.60;10.00;;;3.30;99.90;;;;;;5110146;29;20031;-65
2023/01/24 13:50:37;;;;;;;23.85;10.60;;;3.30;99.90;;;;;;5107845;28;20046;-65
2023/01/24 13:53:11;;;;;;;18.45;10.07;;;3.30;99.90;;;;;;5104903;28;20043;-66
2023/01/24 13:55:42;;;;;;;17.60;9.88;;;3.40;99.90;;;;;;5110903;28;20035;-66
2023/01/24 13:58:25;;;;;;;21.88;10.48;;;3.30;99.90;;;;;;5093388;29;20039;-66
2023/01/24 14:00:59;;;;;;;21.08;9.60;;;3.30;99.90;;;;;;5106783;28;20519;-64
2023/01/24 14:03:37;;;;;;;;;;;3.30;99.90;;;;;;5110329;28;20047;-65
2023/01/24 14:06:16;;;;;;;19.35;8.90;;;3.20;99.90;;;;;;5102068;28;19924;-63
2023/01/24 14:09:00;;;;;;;20.08;9.88;;;3.30;99.90;;;;;;5109398;28;20327;-65
2023/01/24 14:11:39;;;;;;;19.60;9.07;;;3.30;99.90;;;;;;5102571;28;20244;-67
2023/01/24 14:14:31;;;;;;;16.52;9.32;;;3.20;99.90;;;;;;5104772;28;20069;-64
2023/01/24 14:17:25;;;;;;;19.65;9.85;;;3.20;99.90;;;;;;5091316;29;20046;-67
2023/01/24 14:20:00;;;;;;;21.25;10.07;;;3.20;99.90;;;;;;5094955;28;20031;-65